Time;durP1;ratioP1;P1;durP2;ratioP2;P2;SDS_P1;SDS_P2;PMS_P1;PMS_P2;Temp;Humidity;BMP_temperature;BMP_pressure;BME280_temperature;BME280_humidity;BME280_pressure;Samples;Min_cycle;Max_cycle;Signal;HPM_P1;HPM_P2
2022/12/05 00:02:18;;;;;;;12.15;10.95;;;;;;;;;;5034344;28;20033;-58
2022/12/05 00:04:44;;;;;;;12.38;11.38;;;;;;;;;;5038679;28;20035;-58
2022/12/05 00:07:09;;;;;;;12.50;11.50;;;;;;;;;;5034172;28;20543;-58
2022/12/05 00:09:34;;;;;;;10.95;10.15;;;;;;;;;;5038210;28;20041;-59
2022/12/05 00:12:00;;;;;;;11.75;10.85;;;;;;;;;;5033336;28;20026;-60
2022/12/05 00:14:25;;;;;;;11.27;10.15;;;;;;;;;;5034993;28;20103;-58
2022/12/05 00:16:50;;;;;;;10.68;9.95;;;;;;;;;;5032548;28;20041;-58
2022/12/05 00:19:16;;;;;;;13.02;10.70;;;;;;;;;;5036937;28;20092;-58
2022/12/05 00:21:42;;;;;;;11.73;10.93;;;;;;;;;;5035606;28;20036;-58
2022/12/05 00:24:12;;;;;;;11.18;10.38;;;;;;;;;;5034923;28;20449;-59
2022/12/05 00:26:37;;;;;;;11.40;10.50;;;;;;;;;;5035024;28;20078;-59
2022/12/05 00:29:03;;;;;;;11.82;10.90;;;;;;;;;;5034984;28;20511;-59
2022/12/05 00:31:28;;;;;;;11.35;10.52;;;;;;;;;;5033456;28;20647;-58
2022/12/05 00:33:55;;;;;;;12.32;11.50;;;;;;;;;;5036526;28;20037;-58
2022/12/05 00:36:25;;;;;;;10.60;9.88;;;;;;;;;;5036834;28;20036;-58
2022/12/05 00:38:52;;;;;;;11.75;10.85;;;;;;;;;;5037212;28;20033;-59
2022/12/05 00:41:21;;;;;;;12.50;11.57;;;;;;;;;;5033640;28;20463;-59
2022/12/05 00:43:47;;;;;;;10.43;9.73;;;;;;;;;;5035869;28;20040;-59
2022/12/05 00:46:18;;;;;;;9.32;8.73;;;;;;;;;;5032955;28;20026;-59
2022/12/05 00:48:44;;;;;;;10.25;9.48;;;;;;;;;;5033096;28;20048;-59
2022/12/05 00:51:12;;;;;;;11.18;10.25;;;;;;;;;;5034680;28;20045;-59
2022/12/05 00:53:38;;;;;;;11.90;10.85;;;;;;;;;;5031741;28;20210;-59
2022/12/05 00:56:07;;;;;;;11.27;10.35;;;;;;;;;;5032930;28;20025;-59
2022/12/05 00:58:33;;;;;;;10.25;9.48;;;;;;;;;;5034483;28;20899;-59
2022/12/05 01:01:14;;;;;;;10.52;9.63;;;;;;;;;;5033114;28;20062;-59
2022/12/05 01:03:39;;;;;;;10.50;9.73;;;;;;;;;;5034211;28;20112;-59
2022/12/05 01:06:05;;;;;;;12.77;11.65;;;;;;;;;;5032551;28;20142;-59
2022/12/05 01:08:32;;;;;;;12.73;11.73;;;;;;;;;;5035004;28;20026;-59
2022/12/05 01:10:58;;;;;;;12.23;11.27;;;;;;;;;;5036136;28;20033;-59
2022/12/05 01:13:25;;;;;;;10.10;9.40;;;;;;;;;;5033185;28;20037;-59
2022/12/05 01:15:51;;;;;;;12.27;11.38;;;;;;;;;;5031506;28;20050;-58
2022/12/05 01:18:17;;;;;;;10.50;9.80;;;;;;;;;;5034174;28;20152;-59
2022/12/05 01:20:43;;;;;;;11.90;11.00;;;;;;;;;;5036292;28;20064;-59
2022/12/05 01:23:09;;;;;;;10.45;9.75;;;;;;;;;;5034537;28;20117;-59
2022/12/05 01:25:37;;;;;;;11.18;10.38;;;;;;;;;;5035107;28;20684;-60
2022/12/05 01:28:03;;;;;;;12.27;11.43;;;;;;;;;;5031232;28;20134;-59
2022/12/05 01:30:28;;;;;;;12.75;11.75;;;;;;;;;;5035194;28;20447;-59
2022/12/05 01:32:54;;;;;;;13.35;12.38;;;;;;;;;;5033161;28;20043;-59
2022/12/05 01:35:19;;;;;;;12.82;11.93;;;;;;;;;;5035641;28;20098;-59
2022/12/05 01:37:44;;;;;;;12.68;11.77;;;;;;;;;;5034870;28;20072;-59
2022/12/05 01:40:10;;;;;;;13.50;12.52;;;;;;;;;;5032677;28;20048;-58
2022/12/05 01:42:35;;;;;;;12.02;11.13;;;;;;;;;;5036045;28;20064;-59
2022/12/05 01:45:05;;;;;;;11.13;10.43;;;;;;;;;;5032895;28;20040;-59
2022/12/05 01:47:34;;;;;;;12.57;11.60;;;;;;;;;;5033833;28;20757;-59
2022/12/05 01:50:00;;;;;;;13.40;11.00;;;;;;;;;;5032196;28;20060;-59
2022/12/05 01:52:28;;;;;;;12.30;11.40;;;;;;;;;;5036394;28;20100;-58
2022/12/05 01:54:57;;;;;;;12.57;11.52;;;;;;;;;;5032715;28;20048;-59
2022/12/05 01:57:24;;;;;;;11.85;10.95;;;;;;;;;;5032674;28;20046;-59
2022/12/05 01:59:54;;;;;;;11.85;10.95;;;;;;;;;;5032247;28;20037;-59
2022/12/05 02:02:20;;;;;;;11.33;10.53;;;;;;;;;;5035088;28;20065;-59
2022/12/05 02:04:57;;;;;;;11.73;10.85;;;;;;;;;;5041645;28;20299;-59
2022/12/05 02:07:23;;;;;;;13.80;12.68;;;;;;;;;;5031295;28;20037;-58
2022/12/05 02:09:49;;;;;;;12.23;11.15;;;;;;;;;;5034594;28;20438;-59
2022/12/05 02:12:18;;;;;;;12.68;11.68;;;;;;;;;;5031944;28;20040;-59
2022/12/05 02:14:58;;;;;;;13.30;12.15;;;;;;;;;;5033777;28;20185;-58
2022/12/05 02:18:08;;;;;;;12.43;11.55;;;;;;;;;;5032442;28;20166;-59
2022/12/05 02:21:09;;;;;;;11.38;10.68;;;;;;;;;;5031462;28;20037;-59
2022/12/05 02:24:10;;;;;;;11.10;10.32;;;;;;;;;;5035709;28;20029;-59
2022/12/05 02:27:02;;;;;;;11.77;10.88;;;;;;;;;;5031195;28;20703;-59
2022/12/05 02:29:52;;;;;;;12.48;11.57;;;;;;;;;;5032724;28;20246;-59
2022/12/05 02:32:42;;;;;;;11.63;10.50;;;;;;;;;;5030025;28;20133;-59
2022/12/05 02:35:27;;;;;;;10.18;9.38;;;;;;;;;;5033777;28;20029;-59
2022/12/05 02:38:01;;;;;;;11.85;10.95;;;;;;;;;;5032496;28;20387;-59
2022/12/05 02:40:45;;;;;;;12.07;11.27;;;;;;;;;;5031281;28;20033;-58
2022/12/05 02:43:18;;;;;;;11.35;10.55;;;;;;;;;;5034835;28;20029;-58
2022/12/05 02:45:46;;;;;;;12.50;11.60;;;;;;;;;;5032924;28;20098;-59
2022/12/05 02:48:14;;;;;;;11.95;11.05;;;;;;;;;;5030683;28;20048;-59
2022/12/05 02:50:41;;;;;;;11.32;10.52;;;;;;;;;;5034687;28;20033;-59
2022/12/05 02:53:11;;;;;;;12.30;11.40;;;;;;;;;;5033564;28;20041;-58
2022/12/05 02:55:38;;;;;;;13.00;11.90;;;;;;;;;;5032236;28;20620;-59
2022/12/05 02:58:10;;;;;;;11.90;10.98;;;;;;;;;;5030810;28;21081;-59
2022/12/05 03:00:37;;;;;;;;;;;;;;;;;;5032153;28;20033;-59
2022/12/05 03:03:12;;;;;;;9.98;9.30;;;;;;;;;;5029678;28;20358;-59
2022/12/05 03:06:03;;;;;;;11.52;10.73;;;;;;;;;;5033309;28;20024;-59
2022/12/05 03:08:38;;;;;;;10.00;9.10;;;;;;;;;;5029439;28;20032;-59
2022/12/05 03:11:04;;;;;;;11.15;10.18;;;;;;;;;;5029654;28;20720;-59
2022/12/05 03:13:41;;;;;;;12.65;11.75;;;;;;;;;;5032596;28;20106;-58
2022/12/05 03:16:19;;;;;;;11.00;10.13;;;;;;;;;;5031329;28;20033;-59
2022/12/05 03:18:52;;;;;;;10.82;9.93;;;;;;;;;;5033021;28;20554;-59
2022/12/05 03:21:31;;;;;;;11.20;10.18;;;;;;;;;;5032998;28;20063;-59
2022/12/05 03:24:01;;;;;;;11.35;10.45;;;;;;;;;;5032699;28;20162;-59
2022/12/05 03:26:45;;;;;;;12.07;11.13;;;;;;;;;;5032834;28;20040;-59
2022/12/05 03:29:13;;;;;;;11.73;9.88;;;;;;;;;;5029818;28;20052;-59
2022/12/05 03:31:45;;;;;;;10.90;10.00;;;;;;;;;;5029301;28;20025;-59
2022/12/05 03:34:22;;;;;;;11.40;10.57;;;;;;;;;;5032036;28;20048;-57
2022/12/05 03:36:51;;;;;;;11.18;10.32;;;;;;;;;;5031100;28;20053;-59
2022/12/05 03:39:29;;;;;;;11.45;10.55;;;;;;;;;;5036854;28;20083;-59
2022/12/05 03:42:07;;;;;;;13.10;12.07;;;;;;;;;;5035443;28;20060;-59
2022/12/05 03:44:52;;;;;;;12.90;11.90;;;;;;;;;;5039043;28;20677;-59
2022/12/05 03:47:18;;;;;;;12.57;11.45;;;;;;;;;;5033007;28;20033;-59
2022/12/05 03:49:54;;;;;;;11.65;10.80;;;;;;;;;;5036732;28;20060;-59
2022/12/05 03:52:34;;;;;;;11.50;10.80;;;;;;;;;;5035725;28;20110;-58
2022/12/05 03:55:02;;;;;;;11.30;10.40;;;;;;;;;;5033779;28;20041;-59
2022/12/05 03:57:34;;;;;;;11.43;10.52;;;;;;;;;;5036062;28;20370;-59
2022/12/05 04:00:13;;;;;;;12.13;11.13;;;;;;;;;;5042619;28;20048;-59
2022/12/05 04:03:03;;;;;;;12.98;11.75;;;;;;;;;;5038715;28;20133;-59
2022/12/05 04:05:43;;;;;;;12.38;11.48;;;;;;;;;;5038542;28;20031;-59
2022/12/05 04:08:18;;;;;;;13.13;11.97;;;;;;;;;;5036720;28;20041;-58
2022/12/05 04:10:49;;;;;;;11.35;10.45;;;;;;;;;;5033864;28;20029;-59
2022/12/05 04:13:20;;;;;;;13.25;12.10;;;;;;;;;;5034095;28;20187;-60
2022/12/05 04:18:45;;;;;;;13.90;12.85;;;;;;;;;;5032198;28;20048;-60
2022/12/05 04:26:46;;;;;;;11.68;10.63;;;;;;;;;;5036228;28;20502;-59
2022/12/05 04:29:29;;;;;;;13.40;12.40;;;;;;;;;;5035373;28;20045;-59
2022/12/05 04:32:00;;;;;;;10.63;9.95;;;;;;;;;;5034826;28;20037;-59
2022/12/05 04:34:28;;;;;;;11.02;10.23;;;;;;;;;;5035376;28;20064;-58
2022/12/05 04:36:59;;;;;;;12.85;11.38;;;;;;;;;;5034848;28;20029;-58
2022/12/05 04:39:43;;;;;;;11.98;11.00;;;;;;;;;;5034102;28;20037;-56
2022/12/05 04:42:25;;;;;;;12.45;11.65;;;;;;;;;;5037936;28;20033;-58
2022/12/05 04:44:59;;;;;;;12.88;11.70;;;;;;;;;;5034945;28;20033;-59
2022/12/05 04:47:33;;;;;;;11.82;10.95;;;;;;;;;;5035500;28;20063;-59
2022/12/05 04:49:59;;;;;;;12.05;11.13;;;;;;;;;;5031277;28;20057;-58
2022/12/05 04:52:27;;;;;;;12.52;11.50;;;;;;;;;;5034133;28;20493;-59
2022/12/05 04:55:24;;;;;;;13.25;12.15;;;;;;;;;;5033086;28;20099;-59
2022/12/05 04:58:22;;;;;;;12.90;11.90;;;;;;;;;;5033222;28;20080;-58
2022/12/05 05:01:14;;;;;;;12.80;11.93;;;;;;;;;;5032633;28;20574;-58
2022/12/05 05:03:49;;;;;;;11.35;10.55;;;;;;;;;;5032589;28;20029;-59
2022/12/05 05:06:15;;;;;;;11.30;10.40;;;;;;;;;;5041972;28;20148;-59
2022/12/05 05:08:52;;;;;;;17.95;12.57;;;;;;;;;;5032410;28;20036;-58
2022/12/05 05:11:23;;;;;;;12.98;11.88;;;;;;;;;;5034459;28;20041;-59
2022/12/05 05:13:48;;;;;;;14.23;12.95;;;;;;;;;;5034772;28;20029;-58
2022/12/05 05:16:20;;;;;;;14.60;13.20;;;;;;;;;;5034145;28;20039;-58
2022/12/05 05:18:45;;;;;;;;;;;;;;;;;;5034009;28;20087;-59
2022/12/05 05:21:20;;;;;;;11.52;10.63;;;;;;;;;;5034975;28;20046;-59
2022/12/05 05:23:46;;;;;;;11.68;10.88;;;;;;;;;;5034791;28;20465;-59
2022/12/05 05:26:12;;;;;;;15.77;14.45;;;;;;;;;;5033782;28;20035;-59
2022/12/05 05:28:38;;;;;;;13.48;12.43;;;;;;;;;;5035549;28;20063;-59
2022/12/05 05:31:04;;;;;;;13.27;12.00;;;;;;;;;;5034435;28;20037;-59
2022/12/05 05:33:29;;;;;;;14.35;13.25;;;;;;;;;;5033000;28;20044;-59
2022/12/05 05:35:55;;;;;;;14.45;13.35;;;;;;;;;;5036380;28;20032;-59
2022/12/05 05:38:20;;;;;;;14.05;13.13;;;;;;;;;;5031798;28;20160;-59
2022/12/05 05:40:45;;;;;;;12.02;11.10;;;;;;;;;;5031634;28;20029;-59
2022/12/05 05:43:11;;;;;;;15.25;13.77;;;;;;;;;;5032706;28;20033;-59
2022/12/05 05:45:36;;;;;;;13.05;12.13;;;;;;;;;;5033944;28;20033;-59
2022/12/05 05:48:02;;;;;;;14.45;13.45;;;;;;;;;;5031929;28;20040;-59
2022/12/05 05:50:27;;;;;;;14.20;13.20;;;;;;;;;;5032746;28;20043;-59
2022/12/05 05:52:53;;;;;;;14.45;13.05;;;;;;;;;;5032792;28;20057;-59
2022/12/05 05:55:19;;;;;;;12.88;11.85;;;;;;;;;;5031819;28;20125;-59
2022/12/05 05:57:44;;;;;;;12.18;11.27;;;;;;;;;;5033536;28;20427;-59
2022/12/05 06:00:10;;;;;;;12.15;11.25;;;;;;;;;;5031610;28;20470;-66
2022/12/05 06:02:36;;;;;;;15.73;12.68;;;;;;;;;;5033107;28;20032;-59
2022/12/05 06:05:02;;;;;;;12.77;11.88;;;;;;;;;;5033178;28;20028;-59
2022/12/05 06:07:28;;;;;;;12.07;11.15;;;;;;;;;;5034141;28;20020;-59
2022/12/05 06:09:53;;;;;;;15.45;13.82;;;;;;;;;;5032986;28;20231;-59
2022/12/05 06:12:18;;;;;;;13.23;12.20;;;;;;;;;;5030861;28;20051;-59
2022/12/05 06:14:47;;;;;;;13.45;12.23;;;;;;;;;;5034013;28;20040;-59
2022/12/05 06:17:13;;;;;;;12.95;12.05;;;;;;;;;;5033418;28;20088;-59
2022/12/05 06:19:38;;;;;;;12.43;11.52;;;;;;;;;;5029497;28;20037;-59
2022/12/05 06:22:03;;;;;;;12.00;11.23;;;;;;;;;;5032918;28;20037;-59
2022/12/05 06:24:29;;;;;;;15.45;14.25;;;;;;;;;;5035244;28;20033;-59
2022/12/05 06:26:54;;;;;;;13.82;12.82;;;;;;;;;;5036827;28;20056;-59
2022/12/05 06:29:19;;;;;;;14.77;13.57;;;;;;;;;;5033991;28;20064;-59
2022/12/05 06:31:45;;;;;;;12.88;12.00;;;;;;;;;;5034212;28;20103;-59
2022/12/05 06:34:10;;;;;;;11.40;10.60;;;;;;;;;;5029275;28;20391;-59
2022/12/05 06:36:36;;;;;;;13.07;12.07;;;;;;;;;;5032709;28;20103;-59
2022/12/05 06:39:01;;;;;;;13.70;12.57;;;;;;;;;;5034568;28;20483;-59
2022/12/05 06:41:27;;;;;;;13.18;12.18;;;;;;;;;;5032125;28;20042;-59
2022/12/05 06:43:53;;;;;;;15.13;13.60;;;;;;;;;;5031619;28;20035;-59
2022/12/05 06:46:20;;;;;;;16.40;15.07;;;;;;;;;;5032181;28;20034;-59
2022/12/05 06:48:46;;;;;;;16.13;14.55;;;;;;;;;;5030928;28;20721;-59
2022/12/05 06:51:14;;;;;;;12.35;11.55;;;;;;;;;;5030792;28;20115;-60
2022/12/05 06:53:39;;;;;;;14.38;13.27;;;;;;;;;;5039780;28;20099;-59
2022/12/05 06:56:10;;;;;;;13.10;12.15;;;;;;;;;;5030222;28;20045;-58
2022/12/05 06:58:35;;;;;;;15.43;14.23;;;;;;;;;;5029610;28;20049;-58
2022/12/05 07:03:47;;;;;;;14.27;12.80;;;;;;;;;;5030002;28;20483;-57
2022/12/05 07:06:13;;;;;;;14.15;13.05;;;;;;;;;;5031150;28;20486;-58
2022/12/05 07:08:40;;;;;;;13.45;12.35;;;;;;;;;;5033057;28;20043;-58
2022/12/05 07:11:06;;;;;;;13.57;12.68;;;;;;;;;;5031404;28;20041;-58
2022/12/05 07:13:31;;;;;;;14.60;13.45;;;;;;;;;;5035923;28;20032;-56
2022/12/05 07:15:58;;;;;;;14.73;13.48;;;;;;;;;;5036478;28;20025;-56
2022/12/05 07:18:23;;;;;;;13.32;12.40;;;;;;;;;;5034101;28;20036;-59
2022/12/05 07:20:59;;;;;;;16.10;14.60;;;;;;;;;;5040057;28;20052;-58
2022/12/05 07:23:24;;;;;;;16.55;13.02;;;;;;;;;;5035703;28;20175;-58
2022/12/05 07:25:49;;;;;;;13.15;11.95;;;;;;;;;;5035456;28;20116;-58
2022/12/05 07:28:15;;;;;;;17.70;12.00;;;;;;;;;;5032419;28;20513;-58
2022/12/05 07:30:40;;;;;;;13.15;12.15;;;;;;;;;;5035214;28;20158;-58
2022/12/05 07:33:06;;;;;;;12.50;11.50;;;;;;;;;;5035160;28;20048;-58
2022/12/05 07:35:31;;;;;;;13.75;12.55;;;;;;;;;;5036138;28;20033;-59
2022/12/05 07:37:56;;;;;;;12.25;11.20;;;;;;;;;;5036601;28;20033;-59
2022/12/05 07:40:22;;;;;;;12.75;11.63;;;;;;;;;;5036444;28;20072;-58
2022/12/05 07:42:47;;;;;;;14.13;13.10;;;;;;;;;;5035095;28;20033;-58
2022/12/05 07:45:13;;;;;;;12.95;11.75;;;;;;;;;;5036304;28;20056;-58
2022/12/05 07:47:38;;;;;;;12.65;11.30;;;;;;;;;;5035575;28;20461;-59
2022/12/05 07:50:04;;;;;;;15.60;14.20;;;;;;;;;;5036751;28;20445;-59
2022/12/05 07:52:30;;;;;;;13.13;12.18;;;;;;;;;;5033156;28;20048;-59
2022/12/05 07:54:55;;;;;;;15.07;13.68;;;;;;;;;;5036252;28;20030;-58
2022/12/05 07:57:20;;;;;;;13.40;12.40;;;;;;;;;;5032670;28;20119;-59
2022/12/05 07:59:46;;;;;;;12.20;11.23;;;;;;;;;;5035989;28;20025;-59
2022/12/05 08:02:11;;;;;;;14.02;12.75;;;;;;;;;;5035369;28;20541;-58
2022/12/05 08:04:36;;;;;;;11.82;10.73;;;;;;;;;;5034342;28;20105;-59
2022/12/05 08:07:02;;;;;;;16.83;12.63;;;;;;;;;;5032753;28;20473;-58
2022/12/05 08:09:27;;;;;;;17.77;12.20;;;;;;;;;;5031082;28;20029;-58
2022/12/05 08:11:53;;;;;;;12.50;11.68;;;;;;;;;;5036727;28;20043;-59
2022/12/05 08:14:18;;;;;;;14.15;12.88;;;;;;;;;;5032924;28;20037;-59
2022/12/05 08:16:44;;;;;;;13.13;12.13;;;;;;;;;;5034828;28;20043;-58
2022/12/05 08:19:15;;;;;;;11.77;10.90;;;;;;;;;;5033287;28;20172;-56
2022/12/05 08:21:41;;;;;;;12.68;11.68;;;;;;;;;;5042848;28;20045;-57
2022/12/05 08:24:06;;;;;;;16.33;14.93;;;;;;;;;;5033217;28;20091;-57
2022/12/05 08:26:34;;;;;;;13.52;12.55;;;;;;;;;;5034551;28;20067;-58
2022/12/05 08:29:02;;;;;;;15.95;14.75;;;;;;;;;;5036929;28;20422;-57
2022/12/05 08:31:30;;;;;;;14.65;13.52;;;;;;;;;;5034060;28;20037;-57
2022/12/05 08:33:56;;;;;;;13.90;12.80;;;;;;;;;;5035676;28;20193;-57
2022/12/05 08:36:22;;;;;;;13.07;12.07;;;;;;;;;;5032553;28;20075;-57
2022/12/05 08:38:47;;;;;;;14.30;13.13;;;;;;;;;;5033064;28;20131;-57
2022/12/05 08:41:15;;;;;;;15.68;14.13;;;;;;;;;;5033327;28;20183;-57
2022/12/05 08:43:42;;;;;;;11.85;11.00;;;;;;;;;;5032657;28;20147;-57
2022/12/05 08:46:07;;;;;;;14.35;13.27;;;;;;;;;;5032523;28;20033;-58
2022/12/05 08:48:34;;;;;;;23.10;15.63;;;;;;;;;;5031926;28;20448;-56
2022/12/05 08:51:07;;;;;;;17.02;15.57;;;;;;;;;;5035533;28;20050;-57
2022/12/05 08:53:34;;;;;;;14.25;13.18;;;;;;;;;;5034829;28;20396;-57
2022/12/05 08:56:04;;;;;;;13.18;12.32;;;;;;;;;;5031751;28;20174;-56
2022/12/05 08:58:30;;;;;;;15.38;14.18;;;;;;;;;;5032989;28;20038;-57
2022/12/05 09:01:10;;;;;;;14.20;12.82;;;;;;;;;;5034737;28;20037;-57
2022/12/05 09:03:37;;;;;;;13.55;12.55;;;;;;;;;;5035841;28;20072;-58
2022/12/05 09:06:14;;;;;;;13.00;12.10;;;;;;;;;;5033855;28;20036;-58
2022/12/05 09:08:40;;;;;;;12.80;11.52;;;;;;;;;;5031946;28;20065;-58
2022/12/05 09:11:11;;;;;;;12.82;11.93;;;;;;;;;;5032068;28;20189;-58
2022/12/05 09:13:37;;;;;;;14.63;13.38;;;;;;;;;;5032739;28;20110;-54
2022/12/05 09:16:10;;;;;;;12.82;11.93;;;;;;;;;;5022193;28;20037;-56
2022/12/05 09:18:36;;;;;;;14.95;13.85;;;;;;;;;;5027669;28;20094;-56
2022/12/05 09:21:09;;;;;;;14.25;13.00;;;;;;;;;;5031211;28;20569;-57
2022/12/05 09:23:34;;;;;;;11.73;10.90;;;;;;;;;;5029998;28;20646;-55
2022/12/05 09:26:00;;;;;;;13.13;12.15;;;;;;;;;;5032827;28;20040;-55
2022/12/05 09:28:26;;;;;;;13.73;12.65;;;;;;;;;;5032443;28;20039;-57
2022/12/05 09:31:00;;;;;;;15.73;14.10;;;;;;;;;;5033161;28;20436;-56
2022/12/05 09:33:26;;;;;;;13.90;12.75;;;;;;;;;;5030401;28;20454;-56
2022/12/05 09:35:51;;;;;;;14.43;13.43;;;;;;;;;;5031143;28;20106;-58
2022/12/05 09:38:17;;;;;;;16.58;15.23;;;;;;;;;;5032117;28;20124;-57
2022/12/05 09:40:42;;;;;;;15.20;14.07;;;;;;;;;;5037197;28;20033;-57
2022/12/05 09:43:22;;;;;;;14.00;12.75;;;;;;;;;;5034079;28;20037;-58
2022/12/05 09:46:03;;;;;;;14.13;13.18;;;;;;;;;;5032081;28;20026;-58
2022/12/05 09:48:28;;;;;;;15.75;14.65;;;;;;;;;;5032695;28;20496;-58
2022/12/05 09:51:02;;;;;;;14.13;13.20;;;;;;;;;;5035478;28;20040;-58
2022/12/05 09:53:31;;;;;;;14.70;13.65;;;;;;;;;;5030898;28;20030;-58
2022/12/05 09:56:01;;;;;;;14.05;13.10;;;;;;;;;;5032262;28;20037;-57
2022/12/05 09:58:41;;;;;;;13.25;12.35;;;;;;;;;;5029494;28;20590;-58
2022/12/05 10:01:42;;;;;;;13.30;12.40;;;;;;;;;;5029413;28;20029;-58
2022/12/05 10:04:36;;;;;;;12.23;11.43;;;;;;;;;;5031777;28;20052;-57
2022/12/05 10:07:29;;;;;;;16.70;14.75;;;;;;;;;;5034229;28;20047;-57
2022/12/05 10:10:03;;;;;;;12.48;11.70;;;;;;;;;;5030542;28;20867;-56
2022/12/05 10:12:41;;;;;;;13.40;12.50;;;;;;;;;;5032322;28;20546;-58
2022/12/05 10:15:30;;;;;;;14.65;13.73;;;;;;;;;;5032871;28;20041;-57
2022/12/05 10:18:30;;;;;;;14.48;13.38;;;;;;;;;;5035075;28;20029;-58
2022/12/05 10:21:02;;;;;;;13.32;12.23;;;;;;;;;;5033852;28;20475;-57
2022/12/05 10:23:50;;;;;;;14.02;13.13;;;;;;;;;;5032957;28;20037;-58
2022/12/05 10:26:15;;;;;;;13.90;13.00;;;;;;;;;;5028884;28;20082;-58
2022/12/05 10:28:50;;;;;;;12.38;11.57;;;;;;;;;;5031681;28;20033;-58
2022/12/05 10:31:18;;;;;;;13.98;13.00;;;;;;;;;;5031118;28;20038;-57
2022/12/05 10:33:49;;;;;;;13.95;13.00;;;;;;;;;;5031499;28;20564;-58
2022/12/05 10:36:15;;;;;;;16.25;14.88;;;;;;;;;;5030260;28;20056;-58
2022/12/05 10:38:43;;;;;;;14.15;13.20;;;;;;;;;;5032123;28;20068;-58
2022/12/05 10:41:13;;;;;;;15.30;14.15;;;;;;;;;;5030359;28;20048;-58
2022/12/05 10:43:44;;;;;;;14.35;13.25;;;;;;;;;;5034432;28;20045;-58
2022/12/05 10:46:12;;;;;;;14.75;13.65;;;;;;;;;;5033486;28;20034;-58
2022/12/05 10:48:40;;;;;;;14.32;13.43;;;;;;;;;;5029564;28;20482;-58
2022/12/05 10:51:06;;;;;;;15.05;14.15;;;;;;;;;;5036318;28;20040;-58
2022/12/05 10:53:51;;;;;;;14.13;13.20;;;;;;;;;;5030205;28;20080;-58
2022/12/05 10:56:36;;;;;;;14.48;13.38;;;;;;;;;;5033811;28;20389;-58
2022/12/05 10:59:03;;;;;;;15.23;14.13;;;;;;;;;;5032304;28;20044;-58
2022/12/05 11:01:29;;;;;;;14.10;13.20;;;;;;;;;;5032136;28;20476;-58
2022/12/05 11:04:00;;;;;;;13.35;12.52;;;;;;;;;;5030410;28;20115;-58
2022/12/05 11:06:30;;;;;;;14.43;13.40;;;;;;;;;;5035547;28;20030;-58
2022/12/05 11:09:16;;;;;;;13.48;12.60;;;;;;;;;;5033232;28;20096;-58
2022/12/05 11:11:57;;;;;;;14.15;13.25;;;;;;;;;;5031591;28;20454;-58
2022/12/05 11:14:25;;;;;;;13.02;12.23;;;;;;;;;;5029191;28;20060;-58
2022/12/05 11:16:53;;;;;;;14.23;13.25;;;;;;;;;;5030942;28;20032;-58
2022/12/05 11:19:25;;;;;;;12.63;11.82;;;;;;;;;;5026485;28;20033;-58
2022/12/05 11:21:51;;;;;;;14.60;13.50;;;;;;;;;;5029323;28;20037;-58
2022/12/05 11:24:31;;;;;;;15.40;14.00;;;;;;;;;;5029923;28;20041;-58
2022/12/05 11:26:59;;;;;;;13.68;12.77;;;;;;;;;;5028944;28;20060;-58
2022/12/05 11:29:34;;;;;;;16.00;14.65;;;;;;;;;;5029172;28;20021;-56
2022/12/05 11:32:01;;;;;;;13.82;12.93;;;;;;;;;;5025181;28;20091;-59
2022/12/05 11:34:34;;;;;;;14.45;13.55;;;;;;;;;;5028959;28;20028;-58
2022/12/05 11:37:10;;;;;;;14.98;13.77;;;;;;;;;;5035513;28;20324;-58
2022/12/05 11:39:36;;;;;;;16.48;15.13;;;;;;;;;;5033272;28;20033;-57
2022/12/05 11:42:31;;;;;;;15.15;14.15;;;;;;;;;;5029585;28;20173;-58
2022/12/05 11:45:20;;;;;;;14.80;13.70;;;;;;;;;;5027790;28;20126;-57
2022/12/05 11:48:10;;;;;;;15.73;14.38;;;;;;;;;;5032592;28;20029;-57
2022/12/05 11:51:03;;;;;;;17.35;16.08;;;;;;;;;;5030580;28;20025;-57
2022/12/05 11:53:41;;;;;;;15.00;14.05;;;;;;;;;;5028388;28;20114;-58
2022/12/05 11:56:25;;;;;;;15.45;14.25;;;;;;;;;;5028245;28;20123;-56
2022/12/05 11:59:37;;;;;;;15.20;13.82;;;;;;;;;;5035000;28;20149;-58
2022/12/05 12:02:30;;;;;;;19.80;14.07;;;;;;;;;;5029682;28;20102;-57
2022/12/05 12:05:18;;;;;;;13.68;12.40;;;;;;;;;;5037213;28;20040;-58
2022/12/05 12:08:08;;;;;;;16.67;15.30;;;;;;;;;;5035727;28;20029;-57
2022/12/05 12:11:19;;;;;;;15.68;14.63;;;;;;;;;;5032573;28;20374;-58
2022/12/05 12:14:02;;;;;;;15.45;14.45;;;;;;;;;;5003508;28;20133;-57
2022/12/05 12:16:52;;;;;;;15.45;14.32;;;;;;;;;;5001555;28;20033;-57
2022/12/05 12:19:37;;;;;;;15.10;13.93;;;;;;;;;;5027352;28;20041;-57
2022/12/05 12:22:28;;;;;;;13.57;12.57;;;;;;;;;;5035023;28;20647;-57
2022/12/05 12:25:01;;;;;;;14.93;13.93;;;;;;;;;;5034219;28;20036;-57
2022/12/05 12:27:51;;;;;;;14.85;13.75;;;;;;;;;;5033177;28;20452;-57
2022/12/05 12:30:32;;;;;;;14.88;13.80;;;;;;;;;;5035070;28;20045;-58
2022/12/05 12:33:08;;;;;;;15.23;14.27;;;;;;;;;;5034455;28;20094;-59
2022/12/05 12:35:46;;;;;;;14.30;13.30;;;;;;;;;;5029302;28;20075;-58
2022/12/05 12:38:48;;;;;;;14.88;13.88;;;;;;;;;;5036692;28;20036;-58
2022/12/05 12:41:42;;;;;;;15.15;14.10;;;;;;;;;;5035610;28;20021;-57
2022/12/05 12:44:22;;;;;;;14.68;13.68;;;;;;;;;;5030924;28;20138;-57
2022/12/05 12:46:58;;;;;;;14.43;13.52;;;;;;;;;;5034199;28;20459;-58
2022/12/05 12:49:26;;;;;;;14.95;13.98;;;;;;;;;;5030915;28;20374;-58
2022/12/05 12:52:02;;;;;;;15.95;14.95;;;;;;;;;;5032781;28;20103;-58
2022/12/05 12:54:39;;;;;;;15.50;14.40;;;;;;;;;;5033721;28;20029;-58
2022/12/05 12:57:21;;;;;;;14.65;13.68;;;;;;;;;;5030063;28;20026;-57
2022/12/05 13:00:02;;;;;;;15.98;14.38;;;;;;;;;;5030345;28;20033;-57
2022/12/05 13:02:42;;;;;;;14.25;13.20;;;;;;;;;;5030172;28;20036;-57
2022/12/05 13:05:31;;;;;;;15.53;14.60;;;;;;;;;;5032052;28;20120;-57
2022/12/05 13:08:03;;;;;;;15.40;14.40;;;;;;;;;;5031064;28;20672;-58
2022/12/05 13:10:46;;;;;;;16.13;15.02;;;;;;;;;;5029461;28;20123;-58
2022/12/05 13:13:17;;;;;;;14.52;13.43;;;;;;;;;;5029854;28;20099;-58
2022/12/05 13:15:47;;;;;;;14.30;13.40;;;;;;;;;;5031228;28;20128;-57
2022/12/05 13:18:19;;;;;;;17.27;16.00;;;;;;;;;;5031829;28;20493;-57
2022/12/05 13:20:48;;;;;;;15.52;14.52;;;;;;;;;;5031376;28;20122;-55
2022/12/05 13:23:16;;;;;;;14.60;13.70;;;;;;;;;;5033244;28;20064;-57
2022/12/05 13:25:43;;;;;;;14.80;13.80;;;;;;;;;;5034991;28;20829;-57
2022/12/05 13:28:18;;;;;;;18.48;17.20;;;;;;;;;;5032706;28;20041;-57
2022/12/05 13:31:04;;;;;;;15.57;14.50;;;;;;;;;;5031767;28;20037;-57
2022/12/05 13:33:47;;;;;;;14.70;13.60;;;;;;;;;;5032823;28;20415;-57
2022/12/05 13:42:14;;;;;;;13.93;13.02;;;;;;;;;;5030127;28;20059;-57
2022/12/05 13:44:41;;;;;;;14.90;13.90;;;;;;;;;;5032484;28;20722;-57
2022/12/05 13:47:25;;;;;;;15.40;14.48;;;;;;;;;;5030136;28;20298;-58
2022/12/05 13:49:59;;;;;;;15.15;14.05;;;;;;;;;;5034230;28;20051;-57
2022/12/05 13:52:29;;;;;;;14.85;13.75;;;;;;;;;;5032731;28;20542;-57
2022/12/05 13:55:01;;;;;;;14.60;13.52;;;;;;;;;;5033186;28;20467;-57
2022/12/05 13:57:39;;;;;;;15.90;14.52;;;;;;;;;;5032125;28;20494;-57
2022/12/05 14:00:07;;;;;;;15.63;14.63;;;;;;;;;;5032716;28;20048;-57
2022/12/05 14:02:42;;;;;;;15.05;14.05;;;;;;;;;;5031812;28;21243;-56
2022/12/05 14:05:13;;;;;;;16.30;15.20;;;;;;;;;;5033005;28;20048;-58
2022/12/05 14:07:53;;;;;;;13.98;13.07;;;;;;;;;;5032290;28;20103;-57
2022/12/05 14:10:58;;;;;;;14.60;13.60;;;;;;;;;;5031935;28;20049;-57
2022/12/05 14:13:24;;;;;;;14.45;13.57;;;;;;;;;;5031718;28;20037;-56
2022/12/05 14:15:50;;;;;;;14.13;12.65;;;;;;;;;;5033950;28;20048;-58
2022/12/05 14:18:25;;;;;;;14.07;13.13;;;;;;;;;;5029721;28;20155;-58
2022/12/05 14:20:59;;;;;;;15.05;14.05;;;;;;;;;;5028693;28;20461;-58
2022/12/05 14:23:41;;;;;;;13.38;12.48;;;;;;;;;;5032987;28;20505;-57
2022/12/05 14:26:31;;;;;;;14.90;13.90;;;;;;;;;;5037300;28;20037;-58
2022/12/05 14:29:24;;;;;;;15.32;14.18;;;;;;;;;;5031981;28;20063;-58
2022/12/05 14:32:26;;;;;;;14.73;13.82;;;;;;;;;;5029667;28;20029;-59
2022/12/05 14:35:12;;;;;;;15.07;13.85;;;;;;;;;;5030180;28;20030;-58
2022/12/05 14:37:50;;;;;;;15.32;14.30;;;;;;;;;;5030033;28;20640;-58
2022/12/05 14:40:33;;;;;;;14.05;13.07;;;;;;;;;;5032721;28;20036;-58
2022/12/05 14:43:19;;;;;;;15.70;14.68;;;;;;;;;;5032824;28;20034;-58
2022/12/05 14:45:50;;;;;;;16.05;14.90;;;;;;;;;;5029621;28;20308;-58
2022/12/05 14:48:16;;;;;;;15.00;13.88;;;;;;;;;;5029576;28;20037;-58
2022/12/05 14:50:46;;;;;;;15.20;14.10;;;;;;;;;;5031143;28;20093;-57
2022/12/05 14:53:20;;;;;;;15.35;14.00;;;;;;;;;;5031961;28;20052;-57
2022/12/05 14:55:48;;;;;;;14.23;13.32;;;;;;;;;;5029704;28;20119;-57
2022/12/05 14:58:20;;;;;;;14.82;13.82;;;;;;;;;;5030929;28;20033;-57
2022/12/05 15:00:55;;;;;;;14.75;13.75;;;;;;;;;;5021567;28;20479;-58
2022/12/05 15:03:28;;;;;;;14.75;13.70;;;;;;;;;;5030947;28;20038;-57
2022/12/05 15:05:55;;;;;;;15.43;14.35;;;;;;;;;;5030514;28;20017;-58
2022/12/05 15:08:20;;;;;;;14.43;13.32;;;;;;;;;;5030598;28;20056;-58